sensor_id;sensor_type;location;lat;lon;timestamp;temperature;humidity
22430;DHT22;11382;48.086;11.632;2023-04-15T00:01:08;5.60;99.90
22430;DHT22;11382;48.086;11.632;2023-04-15T00:03:36;5.60;99.90
22430;DHT22;11382;48.086;11.632;2023-04-15T00:06:04;5.60;99.90
22430;DHT22;11382;48.086;11.632;2023-04-15T00:08:32;5.50;99.90
22430;DHT22;11382;48.086;11.632;2023-04-15T00:11:01;5.50;99.90
22430;DHT22;11382;48.086;11.632;2023-04-15T00:13:31;5.50;99.90
22430;DHT22;11382;48.086;11.632;2023-04-15T00:15:59;5.50;99.90
22430;DHT22;11382;48.086;11.632;2023-04-15T00:18:28;5.50;99.90
22430;DHT22;11382;48.086;11.632;2023-04-15T00:20:57;5.50;99.90
22430;DHT22;11382;48.086;11.632;2023-04-15T00:23:25;5.30;99.90
22430;DHT22;11382;48.086;11.632;2023-04-15T00:25:53;5.40;99.90
22430;DHT22;11382;48.086;11.632;2023-04-15T00:28:22;5.50;99.90
22430;DHT22;11382;48.086;11.632;2023-04-15T00:30:50;5.40;99.90
22430;DHT22;11382;48.086;11.632;2023-04-15T00:33:18;5.40;99.90
22430;DHT22;11382;48.086;11.632;2023-04-15T00:35:47;5.40;99.90
22430;DHT22;11382;48.086;11.632;2023-04-15T00:38:14;5.40;99.90
22430;DHT22;11382;48.086;11.632;2023-04-15T00:40:43;5.40;99.90
22430;DHT22;11382;48.086;11.632;2023-04-15T00:43:11;5.30;99.90
22430;DHT22;11382;48.086;11.632;2023-04-15T00:45:40;5.30;99.90
22430;DHT22;11382;48.086;11.632;2023-04-15T00:48:09;5.30;99.90
22430;DHT22;11382;48.086;11.632;2023-04-15T00:50:38;5.30;99.90
22430;DHT22;11382;48.086;11.632;2023-04-15T00:53:06;5.30;99.90
22430;DHT22;11382;48.086;11.632;2023-04-15T00:55:34;5.30;99.90
22430;DHT22;11382;48.086;11.632;2023-04-15T00:58:02;5.30;99.90
22430;DHT22;11382;48.086;11.632;2023-04-15T01:00:30;5.30;99.90
22430;DHT22;11382;48.086;11.632;2023-04-15T01:03:00;5.30;99.90
22430;DHT22;11382;48.086;11.632;2023-04-15T01:05:29;5.30;99.90
22430;DHT22;11382;48.086;11.632;2023-04-15T01:07:57;5.30;99.90
22430;DHT22;11382;48.086;11.632;2023-04-15T01:10:25;5.40;99.90
22430;DHT22;11382;48.086;11.632;2023-04-15T01:12:53;5.40;99.90
22430;DHT22;11382;48.086;11.632;2023-04-15T01:15:21;5.40;99.90
22430;DHT22;11382;48.086;11.632;2023-04-15T01:17:49;5.40;99.90
22430;DHT22;11382;48.086;11.632;2023-04-15T01:20:19;5.40;99.90
22430;DHT22;11382;48.086;11.632;2023-04-15T01:22:48;5.40;99.90
22430;DHT22;11382;48.086;11.632;2023-04-15T01:25:18;5.40;99.90
22430;DHT22;11382;48.086;11.632;2023-04-15T01:27:48;5.40;99.90
22430;DHT22;11382;48.086;11.632;2023-04-15T01:30:15;5.40;99.90
22430;DHT22;11382;48.086;11.632;2023-04-15T01:32:43;5.40;99.90
22430;DHT22;11382;48.086;11.632;2023-04-15T01:35:11;5.40;99.90
22430;DHT22;11382;48.086;11.632;2023-04-15T01:37:39;5.40;99.90
22430;DHT22;11382;48.086;11.632;2023-04-15T01:40:08;5.40;99.90
22430;DHT22;11382;48.086;11.632;2023-04-15T01:42:36;5.40;99.90
22430;DHT22;11382;48.086;11.632;2023-04-15T01:45:07;5.40;99.90
22430;DHT22;11382;48.086;11.632;2023-04-15T01:47:36;5.30;99.90
22430;DHT22;11382;48.086;11.632;2023-04-15T01:50:06;5.40;99.90
22430;DHT22;11382;48.086;11.632;2023-04-15T01:52:34;5.40;99.90
22430;DHT22;11382;48.086;11.632;2023-04-15T01:55:02;5.40;99.90
22430;DHT22;11382;48.086;11.632;2023-04-15T01:57:30;5.40;99.90
22430;DHT22;11382;48.086;11.632;2023-04-15T01:59:58;5.30;99.90
22430;DHT22;11382;48.086;11.632;2023-04-15T02:02:27;5.40;99.90
22430;DHT22;11382;48.086;11.632;2023-04-15T02:04:55;5.40;99.90
22430;DHT22;11382;48.086;11.632;2023-04-15T02:07:23;5.40;99.90
22430;DHT22;11382;48.086;11.632;2023-04-15T02:09:51;5.40;99.90
22430;DHT22;11382;48.086;11.632;2023-04-15T02:12:19;5.40;99.90
22430;DHT22;11382;48.086;11.632;2023-04-15T02:14:48;5.40;99.90
22430;DHT22;11382;48.086;11.632;2023-04-15T02:17:16;5.40;99.90
22430;DHT22;11382;48.086;11.632;2023-04-15T02:19:45;5.40;99.90
22430;DHT22;11382;48.086;11.632;2023-04-15T02:22:13;5.40;99.90
22430;DHT22;11382;48.086;11.632;2023-04-15T02:24:45;5.30;99.90
22430;DHT22;11382;48.086;11.632;2023-04-15T02:27:16;5.30;99.90
22430;DHT22;11382;48.086;11.632;2023-04-15T02:29:45;5.30;99.90
22430;DHT22;11382;48.086;11.632;2023-04-15T02:32:13;5.30;99.90
22430;DHT22;11382;48.086;11.632;2023-04-15T02:34:41;5.30;99.90
22430;DHT22;11382;48.086;11.632;2023-04-15T02:37:12;5.40;99.90
22430;DHT22;11382;48.086;11.632;2023-04-15T02:39:40;5.40;99.90
22430;DHT22;11382;48.086;11.632;2023-04-15T02:42:09;5.30;99.90
22430;DHT22;11382;48.086;11.632;2023-04-15T02:44:37;5.30;99.90
22430;DHT22;11382;48.086;11.632;2023-04-15T02:47:05;5.40;99.90
22430;DHT22;11382;48.086;11.632;2023-04-15T02:49:33;5.40;99.90
22430;DHT22;11382;48.086;11.632;2023-04-15T02:52:00;5.40;99.90
22430;DHT22;11382;48.086;11.632;2023-04-15T02:54:30;5.30;99.90
22430;DHT22;11382;48.086;11.632;2023-04-15T02:56:59;5.30;99.90
22430;DHT22;11382;48.086;11.632;2023-04-15T02:59:27;5.20;99.90
22430;DHT22;11382;48.086;11.632;2023-04-15T03:01:55;5.20;99.90
22430;DHT22;11382;48.086;11.632;2023-04-15T03:04:26;5.20;99.90
22430;DHT22;11382;48.086;11.632;2023-04-15T03:06:55;5.20;99.90
22430;DHT22;11382;48.086;11.632;2023-04-15T03:09:24;5.30;99.90
22430;DHT22;11382;48.086;11.632;2023-04-15T03:11:55;5.40;99.90
22430;DHT22;11382;48.086;11.632;2023-04-15T03:14:24;5.40;99.90
22430;DHT22;11382;48.086;11.632;2023-04-15T03:16:53;5.40;99.90
22430;DHT22;11382;48.086;11.632;2023-04-15T03:19:22;5.40;99.90
22430;DHT22;11382;48.086;11.632;2023-04-15T03:21:50;5.40;99.90
22430;DHT22;11382;48.086;11.632;2023-04-15T03:24:19;5.40;99.90
22430;DHT22;11382;48.086;11.632;2023-04-15T03:26:47;5.50;99.90
22430;DHT22;11382;48.086;11.632;2023-04-15T03:29:17;5.60;99.90
22430;DHT22;11382;48.086;11.632;2023-04-15T03:31:46;5.60;99.90
22430;DHT22;11382;48.086;11.632;2023-04-15T03:34:15;5.60;99.90
22430;DHT22;11382;48.086;11.632;2023-04-15T03:36:43;5.60;99.90
22430;DHT22;11382;48.086;11.632;2023-04-15T03:39:11;5.60;99.90
22430;DHT22;11382;48.086;11.632;2023-04-15T03:41:39;5.60;99.90
22430;DHT22;11382;48.086;11.632;2023-04-15T03:44:07;5.50;99.90
22430;DHT22;11382;48.086;11.632;2023-04-15T03:46:36;5.50;99.90
22430;DHT22;11382;48.086;11.632;2023-04-15T03:49:05;5.50;99.90
22430;DHT22;11382;48.086;11.632;2023-04-15T03:51:33;5.50;99.90
22430;DHT22;11382;48.086;11.632;2023-04-15T03:54:01;5.50;99.90
22430;DHT22;11382;48.086;11.632;2023-04-15T03:56:29;5.50;99.90
22430;DHT22;11382;48.086;11.632;2023-04-15T03:58:57;5.40;99.90
22430;DHT22;11382;48.086;11.632;2023-04-15T04:01:25;5.40;99.90
22430;DHT22;11382;48.086;11.632;2023-04-15T04:03:54;5.50;99.90
22430;DHT22;11382;48.086;11.632;2023-04-15T04:06:22;5.40;99.90
22430;DHT22;11382;48.086;11.632;2023-04-15T04:08:50;5.50;99.90
22430;DHT22;11382;48.086;11.632;2023-04-15T04:11:18;5.50;99.90
22430;DHT22;11382;48.086;11.632;2023-04-15T04:13:46;5.50;99.90
22430;DHT22;11382;48.086;11.632;2023-04-15T04:16:14;5.50;99.90
22430;DHT22;11382;48.086;11.632;2023-04-15T04:18:43;5.50;99.90
22430;DHT22;11382;48.086;11.632;2023-04-15T04:21:12;5.50;99.90
22430;DHT22;11382;48.086;11.632;2023-04-15T04:23:40;5.50;99.90
22430;DHT22;11382;48.086;11.632;2023-04-15T04:26:08;5.50;99.90
22430;DHT22;11382;48.086;11.632;2023-04-15T04:28:36;5.50;99.90
22430;DHT22;11382;48.086;11.632;2023-04-15T04:31:06;5.50;99.90
22430;DHT22;11382;48.086;11.632;2023-04-15T04:33:34;5.50;99.90
22430;DHT22;11382;48.086;11.632;2023-04-15T04:36:02;5.50;99.90
22430;DHT22;11382;48.086;11.632;2023-04-15T04:38:32;5.50;99.90
22430;DHT22;11382;48.086;11.632;2023-04-15T04:41:00;5.50;99.90
22430;DHT22;11382;48.086;11.632;2023-04-15T04:43:27;5.50;99.90
22430;DHT22;11382;48.086;11.632;2023-04-15T04:45:55;5.50;99.90
22430;DHT22;11382;48.086;11.632;2023-04-15T04:48:23;5.50;99.90
22430;DHT22;11382;48.086;11.632;2023-04-15T04:50:52;5.60;99.90
22430;DHT22;11382;48.086;11.632;2023-04-15T04:53:20;5.60;99.90
22430;DHT22;11382;48.086;11.632;2023-04-15T04:55:49;5.70;99.90
22430;DHT22;11382;48.086;11.632;2023-04-15T04:58:17;5.70;99.90
22430;DHT22;11382;48.086;11.632;2023-04-15T05:00:45;5.70;99.90
22430;DHT22;11382;48.086;11.632;2023-04-15T05:03:13;5.70;99.90
22430;DHT22;11382;48.086;11.632;2023-04-15T05:05:42;5.70;99.90
22430;DHT22;11382;48.086;11.632;2023-04-15T05:08:09;5.80;99.90
22430;DHT22;11382;48.086;11.632;2023-04-15T05:10:37;5.90;99.90
22430;DHT22;11382;48.086;11.632;2023-04-15T05:13:07;5.90;99.90
22430;DHT22;11382;48.086;11.632;2023-04-15T05:15:35;5.80;99.90
22430;DHT22;11382;48.086;11.632;2023-04-15T05:18:05;5.80;99.90
22430;DHT22;11382;48.086;11.632;2023-04-15T05:20:33;5.90;99.90
22430;DHT22;11382;48.086;11.632;2023-04-15T05:23:01;5.90;99.90
22430;DHT22;11382;48.086;11.632;2023-04-15T05:25:29;5.80;99.90
22430;DHT22;11382;48.086;11.632;2023-04-15T05:27:57;5.70;99.90
22430;DHT22;11382;48.086;11.632;2023-04-15T05:30:27;5.80;99.90
22430;DHT22;11382;48.086;11.632;2023-04-15T05:32:55;5.80;99.90
22430;DHT22;11382;48.086;11.632;2023-04-15T05:35:23;5.80;99.90
22430;DHT22;11382;48.086;11.632;2023-04-15T05:37:51;5.90;99.90
22430;DHT22;11382;48.086;11.632;2023-04-15T05:40:19;5.90;99.90
22430;DHT22;11382;48.086;11.632;2023-04-15T05:42:46;5.90;99.90
22430;DHT22;11382;48.086;11.632;2023-04-15T05:45:14;6.00;99.90
22430;DHT22;11382;48.086;11.632;2023-04-15T05:47:44;5.90;99.90
22430;DHT22;11382;48.086;11.632;2023-04-15T05:50:12;5.90;99.90
22430;DHT22;11382;48.086;11.632;2023-04-15T05:52:40;6.00;99.90
22430;DHT22;11382;48.086;11.632;2023-04-15T05:55:08;6.00;99.90
22430;DHT22;11382;48.086;11.632;2023-04-15T05:57:36;6.00;99.90
22430;DHT22;11382;48.086;11.632;2023-04-15T06:00:05;6.10;99.90
22430;DHT22;11382;48.086;11.632;2023-04-15T06:02:39;6.20;99.90
22430;DHT22;11382;48.086;11.632;2023-04-15T06:05:09;6.30;99.90
22430;DHT22;11382;48.086;11.632;2023-04-15T06:07:37;6.30;99.90
22430;DHT22;11382;48.086;11.632;2023-04-15T06:10:06;6.30;99.90
22430;DHT22;11382;48.086;11.632;2023-04-15T06:12:34;6.40;99.90
22430;DHT22;11382;48.086;11.632;2023-04-15T06:15:03;6.30;99.90
22430;DHT22;11382;48.086;11.632;2023-04-15T06:17:32;6.40;99.90
22430;DHT22;11382;48.086;11.632;2023-04-15T06:20:00;6.40;99.90
22430;DHT22;11382;48.086;11.632;2023-04-15T06:22:29;6.50;99.90
22430;DHT22;11382;48.086;11.632;2023-04-15T06:24:57;6.50;99.90
22430;DHT22;11382;48.086;11.632;2023-04-15T06:27:25;6.60;99.90
22430;DHT22;11382;48.086;11.632;2023-04-15T06:29:53;6.60;99.90
22430;DHT22;11382;48.086;11.632;2023-04-15T06:32:21;6.60;99.90
22430;DHT22;11382;48.086;11.632;2023-04-15T06:34:49;6.70;99.90
22430;DHT22;11382;48.086;11.632;2023-04-15T06:37:17;6.90;99.90
22430;DHT22;11382;48.086;11.632;2023-04-15T06:39:46;7.00;99.90
22430;DHT22;11382;48.086;11.632;2023-04-15T06:42:14;7.00;99.90
22430;DHT22;11382;48.086;11.632;2023-04-15T06:44:42;7.10;99.90
22430;DHT22;11382;48.086;11.632;2023-04-15T06:47:10;7.30;99.90
22430;DHT22;11382;48.086;11.632;2023-04-15T06:49:40;7.40;99.90
22430;DHT22;11382;48.086;11.632;2023-04-15T06:52:09;7.50;99.90
22430;DHT22;11382;48.086;11.632;2023-04-15T06:54:37;7.60;99.90
22430;DHT22;11382;48.086;11.632;2023-04-15T06:57:06;7.70;99.90
22430;DHT22;11382;48.086;11.632;2023-04-15T06:59:34;8.00;99.90
22430;DHT22;11382;48.086;11.632;2023-04-15T07:02:02;8.10;99.90
22430;DHT22;11382;48.086;11.632;2023-04-15T07:04:30;8.40;99.90
22430;DHT22;11382;48.086;11.632;2023-04-15T07:06:59;8.60;99.90
22430;DHT22;11382;48.086;11.632;2023-04-15T07:09:28;8.60;99.90
22430;DHT22;11382;48.086;11.632;2023-04-15T07:11:56;8.60;99.90
22430;DHT22;11382;48.086;11.632;2023-04-15T07:14:25;8.70;99.90
22430;DHT22;11382;48.086;11.632;2023-04-15T07:16:53;9.00;99.90
22430;DHT22;11382;48.086;11.632;2023-04-15T07:19:21;9.30;99.90
22430;DHT22;11382;48.086;11.632;2023-04-15T07:21:49;9.70;99.90
22430;DHT22;11382;48.086;11.632;2023-04-15T07:24:17;10.10;99.90
22430;DHT22;11382;48.086;11.632;2023-04-15T07:26:46;10.30;99.90
22430;DHT22;11382;48.086;11.632;2023-04-15T07:29:14;10.50;99.90
22430;DHT22;11382;48.086;11.632;2023-04-15T07:31:43;10.80;99.90
22430;DHT22;11382;48.086;11.632;2023-04-15T07:34:11;11.00;99.90
22430;DHT22;11382;48.086;11.632;2023-04-15T07:36:39;11.30;99.90
22430;DHT22;11382;48.086;11.632;2023-04-15T07:39:08;11.50;99.90
22430;DHT22;11382;48.086;11.632;2023-04-15T07:41:39;11.70;99.90
22430;DHT22;11382;48.086;11.632;2023-04-15T07:44:07;12.20;99.90
22430;DHT22;11382;48.086;11.632;2023-04-15T07:46:35;12.30;99.90
22430;DHT22;11382;48.086;11.632;2023-04-15T07:49:05;12.40;99.90
22430;DHT22;11382;48.086;11.632;2023-04-15T07:51:33;12.60;99.90
22430;DHT22;11382;48.086;11.632;2023-04-15T07:54:01;12.60;99.90
22430;DHT22;11382;48.086;11.632;2023-04-15T07:56:29;12.50;99.90
22430;DHT22;11382;48.086;11.632;2023-04-15T07:58:58;12.50;99.90
22430;DHT22;11382;48.086;11.632;2023-04-15T08:01:28;12.30;99.90
22430;DHT22;11382;48.086;11.632;2023-04-15T08:03:56;13.00;99.90
22430;DHT22;11382;48.086;11.632;2023-04-15T08:06:25;13.60;99.90
22430;DHT22;11382;48.086;11.632;2023-04-15T08:08:54;14.20;99.90
22430;DHT22;11382;48.086;11.632;2023-04-15T08:11:22;15.30;99.90
22430;DHT22;11382;48.086;11.632;2023-04-15T08:13:51;16.10;99.90
22430;DHT22;11382;48.086;11.632;2023-04-15T08:16:20;16.70;99.00
22430;DHT22;11382;48.086;11.632;2023-04-15T08:18:49;15.80;99.20
22430;DHT22;11382;48.086;11.632;2023-04-15T08:21:18;15.90;98.10
22430;DHT22;11382;48.086;11.632;2023-04-15T08:23:48;16.20;98.40
22430;DHT22;11382;48.086;11.632;2023-04-15T08:26:17;16.20;97.60
22430;DHT22;11382;48.086;11.632;2023-04-15T08:28:45;15.60;97.60
22430;DHT22;11382;48.086;11.632;2023-04-15T08:31:15;15.40;97.40
22430;DHT22;11382;48.086;11.632;2023-04-15T08:33:43;15.60;98.60
22430;DHT22;11382;48.086;11.632;2023-04-15T08:36:11;15.60;98.40
22430;DHT22;11382;48.086;11.632;2023-04-15T08:38:39;15.00;98.10
22430;DHT22;11382;48.086;11.632;2023-04-15T08:41:11;14.10;99.50
22430;DHT22;11382;48.086;11.632;2023-04-15T08:43:50;13.30;99.90
22430;DHT22;11382;48.086;11.632;2023-04-15T08:46:20;12.90;99.90
22430;DHT22;11382;48.086;11.632;2023-04-15T08:48:49;12.60;99.90
22430;DHT22;11382;48.086;11.632;2023-04-15T08:51:17;12.20;99.90
22430;DHT22;11382;48.086;11.632;2023-04-15T08:53:45;12.00;99.90
22430;DHT22;11382;48.086;11.632;2023-04-15T08:56:15;11.80;99.90
22430;DHT22;11382;48.086;11.632;2023-04-15T08:58:44;11.80;99.90
22430;DHT22;11382;48.086;11.632;2023-04-15T09:01:13;11.90;99.90
22430;DHT22;11382;48.086;11.632;2023-04-15T09:03:41;12.10;99.90
22430;DHT22;11382;48.086;11.632;2023-04-15T09:06:09;12.50;99.90
22430;DHT22;11382;48.086;11.632;2023-04-15T09:08:38;12.50;99.90
22430;DHT22;11382;48.086;11.632;2023-04-15T09:11:07;12.50;99.90
22430;DHT22;11382;48.086;11.632;2023-04-15T09:13:36;12.40;99.90
22430;DHT22;11382;48.086;11.632;2023-04-15T09:16:05;12.40;99.90
22430;DHT22;11382;48.086;11.632;2023-04-15T09:18:35;12.30;99.90
22430;DHT22;11382;48.086;11.632;2023-04-15T09:21:04;12.30;99.90
22430;DHT22;11382;48.086;11.632;2023-04-15T09:23:34;12.40;99.90
22430;DHT22;11382;48.086;11.632;2023-04-15T09:26:03;12.60;99.90
22430;DHT22;11382;48.086;11.632;2023-04-15T09:28:32;12.80;99.90
22430;DHT22;11382;48.086;11.632;2023-04-15T09:31:02;12.80;99.90
22430;DHT22;11382;48.086;11.632;2023-04-15T09:33:30;13.00;99.90
22430;DHT22;11382;48.086;11.632;2023-04-15T09:36:00;12.90;99.90
22430;DHT22;11382;48.086;11.632;2023-04-15T09:38:28;12.60;99.90
22430;DHT22;11382;48.086;11.632;2023-04-15T09:40:57;12.80;99.90
22430;DHT22;11382;48.086;11.632;2023-04-15T09:43:37;13.00;99.90
22430;DHT22;11382;48.086;11.632;2023-04-15T09:46:06;13.20;99.90
22430;DHT22;11382;48.086;11.632;2023-04-15T09:48:35;13.20;99.90
22430;DHT22;11382;48.086;11.632;2023-04-15T09:51:03;13.50;99.90
22430;DHT22;11382;48.086;11.632;2023-04-15T09:53:34;13.60;99.90
22430;DHT22;11382;48.086;11.632;2023-04-15T09:56:02;13.50;99.90
22430;DHT22;11382;48.086;11.632;2023-04-15T09:58:34;13.30;99.90
22430;DHT22;11382;48.086;11.632;2023-04-15T10:01:04;13.00;99.90
22430;DHT22;11382;48.086;11.632;2023-04-15T10:03:35;12.50;99.90
22430;DHT22;11382;48.086;11.632;2023-04-15T10:06:03;12.30;99.90
22430;DHT22;11382;48.086;11.632;2023-04-15T10:08:33;12.20;99.90
22430;DHT22;11382;48.086;11.632;2023-04-15T10:11:01;12.10;99.90
22430;DHT22;11382;48.086;11.632;2023-04-15T10:13:31;11.70;99.90
22430;DHT22;11382;48.086;11.632;2023-04-15T10:16:06;11.50;99.90
22430;DHT22;11382;48.086;11.632;2023-04-15T10:18:39;11.30;99.90
22430;DHT22;11382;48.086;11.632;2023-04-15T10:21:09;11.10;99.90
22430;DHT22;11382;48.086;11.632;2023-04-15T10:23:40;11.10;99.90
22430;DHT22;11382;48.086;11.632;2023-04-15T10:26:09;11.20;99.90
22430;DHT22;11382;48.086;11.632;2023-04-15T10:28:38;11.50;99.90
22430;DHT22;11382;48.086;11.632;2023-04-15T10:31:06;11.50;99.90
22430;DHT22;11382;48.086;11.632;2023-04-15T10:33:36;11.80;99.90
22430;DHT22;11382;48.086;11.632;2023-04-15T10:36:05;11.80;99.90
22430;DHT22;11382;48.086;11.632;2023-04-15T10:38:35;11.70;99.90
22430;DHT22;11382;48.086;11.632;2023-04-15T10:41:14;11.90;99.90
22430;DHT22;11382;48.086;11.632;2023-04-15T10:43:51;11.80;99.90
22430;DHT22;11382;48.086;11.632;2023-04-15T10:46:21;11.50;99.90
22430;DHT22;11382;48.086;11.632;2023-04-15T10:48:53;11.60;99.90
22430;DHT22;11382;48.086;11.632;2023-04-15T10:51:28;11.80;99.90
22430;DHT22;11382;48.086;11.632;2023-04-15T10:53:58;12.00;99.90
22430;DHT22;11382;48.086;11.632;2023-04-15T10:56:28;12.40;99.90
22430;DHT22;11382;48.086;11.632;2023-04-15T10:58:58;12.70;99.90
22430;DHT22;11382;48.086;11.632;2023-04-15T11:01:51;12.80;99.90
22430;DHT22;11382;48.086;11.632;2023-04-15T11:04:52;13.20;99.90
22430;DHT22;11382;48.086;11.632;2023-04-15T11:07:35;13.10;99.90
22430;DHT22;11382;48.086;11.632;2023-04-15T11:13:25;13.10;99.90
22430;DHT22;11382;48.086;11.632;2023-04-15T11:15:59;12.60;99.90
22430;DHT22;11382;48.086;11.632;2023-04-15T11:18:29;12.50;99.90
22430;DHT22;11382;48.086;11.632;2023-04-15T11:21:01;12.50;99.90
22430;DHT22;11382;48.086;11.632;2023-04-15T11:23:32;12.50;99.90
22430;DHT22;11382;48.086;11.632;2023-04-15T11:26:01;12.50;99.90
22430;DHT22;11382;48.086;11.632;2023-04-15T11:28:32;12.60;99.90
22430;DHT22;11382;48.086;11.632;2023-04-15T11:31:05;12.60;99.90
22430;DHT22;11382;48.086;11.632;2023-04-15T11:33:34;12.50;99.90
22430;DHT22;11382;48.086;11.632;2023-04-15T11:36:03;12.30;99.90
22430;DHT22;11382;48.086;11.632;2023-04-15T11:38:33;12.20;99.90
22430;DHT22;11382;48.086;11.632;2023-04-15T11:41:01;11.80;99.90
22430;DHT22;11382;48.086;11.632;2023-04-15T11:43:31;11.50;99.90
22430;DHT22;11382;48.086;11.632;2023-04-15T11:46:01;11.20;99.90
22430;DHT22;11382;48.086;11.632;2023-04-15T11:48:31;10.90;99.90
22430;DHT22;11382;48.086;11.632;2023-04-15T11:51:00;10.70;99.90
22430;DHT22;11382;48.086;11.632;2023-04-15T11:53:41;10.50;99.90
22430;DHT22;11382;48.086;11.632;2023-04-15T11:56:10;10.50;99.90
22430;DHT22;11382;48.086;11.632;2023-04-15T11:58:38;10.50;99.90
22430;DHT22;11382;48.086;11.632;2023-04-15T12:01:06;10.60;99.90
22430;DHT22;11382;48.086;11.632;2023-04-15T12:03:38;10.50;99.90
22430;DHT22;11382;48.086;11.632;2023-04-15T12:06:13;10.50;99.90
22430;DHT22;11382;48.086;11.632;2023-04-15T12:09:07;10.60;99.90
22430;DHT22;11382;48.086;11.632;2023-04-15T12:11:39;10.60;99.90
22430;DHT22;11382;48.086;11.632;2023-04-15T12:14:21;10.70;99.90
22430;DHT22;11382;48.086;11.632;2023-04-15T12:16:51;10.80;99.90
22430;DHT22;11382;48.086;11.632;2023-04-15T12:19:26;10.80;99.90
22430;DHT22;11382;48.086;11.632;2023-04-15T12:21:58;10.80;99.90
22430;DHT22;11382;48.086;11.632;2023-04-15T12:24:30;10.70;99.90
22430;DHT22;11382;48.086;11.632;2023-04-15T12:27:01;10.50;99.90
22430;DHT22;11382;48.086;11.632;2023-04-15T12:29:30;10.50;99.90
22430;DHT22;11382;48.086;11.632;2023-04-15T12:32:03;10.50;99.90
22430;DHT22;11382;48.086;11.632;2023-04-15T12:34:33;10.60;99.90
22430;DHT22;11382;48.086;11.632;2023-04-15T12:37:03;10.70;99.90
22430;DHT22;11382;48.086;11.632;2023-04-15T12:39:34;10.90;99.90
22430;DHT22;11382;48.086;11.632;2023-04-15T12:42:03;11.10;99.90
22430;DHT22;11382;48.086;11.632;2023-04-15T12:44:32;11.10;99.90
22430;DHT22;11382;48.086;11.632;2023-04-15T12:47:00;10.90;99.90
22430;DHT22;11382;48.086;11.632;2023-04-15T12:49:29;10.80;99.90
22430;DHT22;11382;48.086;11.632;2023-04-15T12:51:59;10.80;99.90
22430;DHT22;11382;48.086;11.632;2023-04-15T12:54:28;10.90;99.90
22430;DHT22;11382;48.086;11.632;2023-04-15T12:56:58;11.00;99.90
22430;DHT22;11382;48.086;11.632;2023-04-15T12:59:26;11.00;99.90
22430;DHT22;11382;48.086;11.632;2023-04-15T13:01:54;11.20;99.90
22430;DHT22;11382;48.086;11.632;2023-04-15T13:04:23;11.10;99.90
22430;DHT22;11382;48.086;11.632;2023-04-15T13:06:51;11.10;99.90
22430;DHT22;11382;48.086;11.632;2023-04-15T13:09:19;11.10;99.90
22430;DHT22;11382;48.086;11.632;2023-04-15T13:11:48;11.00;99.90
22430;DHT22;11382;48.086;11.632;2023-04-15T13:14:19;10.70;99.90
22430;DHT22;11382;48.086;11.632;2023-04-15T13:16:47;10.70;99.90
22430;DHT22;11382;48.086;11.632;2023-04-15T13:19:15;10.60;99.90
22430;DHT22;11382;48.086;11.632;2023-04-15T13:21:43;10.60;99.90
22430;DHT22;11382;48.086;11.632;2023-04-15T13:24:11;10.50;99.90
22430;DHT22;11382;48.086;11.632;2023-04-15T13:26:39;10.40;99.90
22430;DHT22;11382;48.086;11.632;2023-04-15T13:29:07;10.20;99.90
22430;DHT22;11382;48.086;11.632;2023-04-15T13:31:36;10.20;99.90
22430;DHT22;11382;48.086;11.632;2023-04-15T13:34:04;10.10;99.90
22430;DHT22;11382;48.086;11.632;2023-04-15T13:36:33;10.10;99.90
22430;DHT22;11382;48.086;11.632;2023-04-15T13:39:01;10.20;99.90
22430;DHT22;11382;48.086;11.632;2023-04-15T13:41:29;10.30;99.90
22430;DHT22;11382;48.086;11.632;2023-04-15T13:43:57;10.40;99.90
22430;DHT22;11382;48.086;11.632;2023-04-15T13:46:25;10.40;99.90
22430;DHT22;11382;48.086;11.632;2023-04-15T13:48:55;10.40;99.90
22430;DHT22;11382;48.086;11.632;2023-04-15T13:51:23;10.30;99.90
22430;DHT22;11382;48.086;11.632;2023-04-15T13:53:51;10.30;99.90
22430;DHT22;11382;48.086;11.632;2023-04-15T13:56:19;10.30;99.90
22430;DHT22;11382;48.086;11.632;2023-04-15T13:58:47;10.20;99.90
22430;DHT22;11382;48.086;11.632;2023-04-15T14:01:15;10.10;99.90
22430;DHT22;11382;48.086;11.632;2023-04-15T14:03:43;9.90;99.90
22430;DHT22;11382;48.086;11.632;2023-04-15T14:06:13;9.70;99.90
22430;DHT22;11382;48.086;11.632;2023-04-15T14:08:41;9.60;99.90
22430;DHT22;11382;48.086;11.632;2023-04-15T14:11:09;9.60;99.90
22430;DHT22;11382;48.086;11.632;2023-04-15T14:13:37;9.70;99.90
22430;DHT22;11382;48.086;11.632;2023-04-15T14:16:05;9.70;99.90
22430;DHT22;11382;48.086;11.632;2023-04-15T14:18:33;9.80;99.90
22430;DHT22;11382;48.086;11.632;2023-04-15T14:21:04;9.90;99.90
22430;DHT22;11382;48.086;11.632;2023-04-15T14:23:33;10.00;99.90
22430;DHT22;11382;48.086;11.632;2023-04-15T14:26:01;10.10;99.90
22430;DHT22;11382;48.086;11.632;2023-04-15T14:28:29;10.30;99.90
22430;DHT22;11382;48.086;11.632;2023-04-15T14:30:57;10.40;99.90
22430;DHT22;11382;48.086;11.632;2023-04-15T14:33:25;10.20;99.90
22430;DHT22;11382;48.086;11.632;2023-04-15T14:35:53;10.30;99.90
22430;DHT22;11382;48.086;11.632;2023-04-15T14:38:21;10.10;99.90
22430;DHT22;11382;48.086;11.632;2023-04-15T14:40:51;9.90;99.90
22430;DHT22;11382;48.086;11.632;2023-04-15T14:43:19;9.90;99.90
22430;DHT22;11382;48.086;11.632;2023-04-15T14:45:47;9.80;99.90
22430;DHT22;11382;48.086;11.632;2023-04-15T14:48:15;9.90;99.90
22430;DHT22;11382;48.086;11.632;2023-04-15T14:50:43;9.90;99.90
22430;DHT22;11382;48.086;11.632;2023-04-15T14:53:12;9.90;99.90
22430;DHT22;11382;48.086;11.632;2023-04-15T14:55:40;9.80;99.90
22430;DHT22;11382;48.086;11.632;2023-04-15T14:58:10;9.70;99.90
22430;DHT22;11382;48.086;11.632;2023-04-15T15:00:38;9.70;99.90
22430;DHT22;11382;48.086;11.632;2023-04-15T15:03:10;9.70;99.90
22430;DHT22;11382;48.086;11.632;2023-04-15T15:05:40;9.80;99.90
22430;DHT22;11382;48.086;11.632;2023-04-15T15:08:09;9.80;99.90
22430;DHT22;11382;48.086;11.632;2023-04-15T15:10:37;9.80;99.90
22430;DHT22;11382;48.086;11.632;2023-04-15T15:13:17;9.90;99.90
22430;DHT22;11382;48.086;11.632;2023-04-15T15:15:45;10.00;99.90
22430;DHT22;11382;48.086;11.632;2023-04-15T15:18:15;9.90;99.90
22430;DHT22;11382;48.086;11.632;2023-04-15T15:20:44;9.90;99.90
22430;DHT22;11382;48.086;11.632;2023-04-15T15:23:12;9.90;99.90
22430;DHT22;11382;48.086;11.632;2023-04-15T15:25:40;9.90;99.90
22430;DHT22;11382;48.086;11.632;2023-04-15T15:28:08;9.60;99.90
22430;DHT22;11382;48.086;11.632;2023-04-15T15:30:38;9.30;99.90
22430;DHT22;11382;48.086;11.632;2023-04-15T15:33:06;9.20;99.90
22430;DHT22;11382;48.086;11.632;2023-04-15T15:35:33;9.00;99.90
22430;DHT22;11382;48.086;11.632;2023-04-15T15:38:02;9.00;99.90
22430;DHT22;11382;48.086;11.632;2023-04-15T15:40:29;8.70;99.90